Aérodrome :
LOGIN :

S'inscrire | Disclaimer

   EN    FR    IT 

 










Légende :    VFR   VFR Marginal   IFR   IFR Intensif   IFR Très Intensif
Visi : 
Plafond : 
>= 8 km
>= 3000ft
5 à 8 km
1000 à 3000 ft
1500m à 5 km
500 à 1000 ft
800 à 1500m
200 à 500 ft
< 800m
< 200 ft
Symboles :   Orages  Brouillard  Fortes neiges  Fortes précipitations  Vent > 20 kt
SIGMETs :   Divers  Orages  Givrage  Turbulence  Onde Orograph.  Cendres Volcan.






- Altitude de l'aérodrome : 42 ft
- Code IATA : LMO


EGQS - Lossiemouth

DERNIER METAR :
  • 021850Z 28017KT 9999 FEW022CB 04/M02 Q1009 RMK BLU

METARs EXPIRÉS :
  • 021750Z 29021KT 9999 FEW035 05/M04 Q1008 RMK BLU
  • 021650Z 29019KT 9999 FEW035 06/M04 Q1007 NOSIG RMK BLU BLU

TAF TAF EGQS
Valide du 02 à 18h jusqu'au 03 à 12h UTC


021613Z 0218/0312 29018G28KT 9999 FEW025 SCT040
PROB30
TEMPO 0218/0312 2000 SHSN SHGS SCT006 BKN014CB
BECMG 0218/0221 28012KT



MET'MAP, la Météo Aéronautique d'un coup d'oeil ! - Copyright ORBIFLY Décembre 2007 - Disclaimer

ORBIFLY MET'MAP TEAM :

Programmation & Développement : Alexandra Zaïnal
Sur une idée originale de : Baudouin d'Aumeries
Assistance à la programmation : Marc-Olivier Méhu
Soutien technique & logistique : Manuel Goepfert

Contact : metmap@orbifly.com




SOURCES & CREDITS :

   NOAA